createdAt,value
2019-05-20T00:00:00.373Z,14.92
2019-05-20T00:00:57.102Z,14.85
2019-05-20T00:01:57.108Z,14.85
2019-05-20T00:02:57.099Z,14.85
2019-05-20T00:03:57.340Z,14.88
2019-05-20T00:04:57.337Z,14.78
2019-05-20T00:05:57.633Z,14.81
2019-05-20T00:06:57.325Z,14.82
2019-05-20T00:07:57.086Z,14.58
2019-05-20T00:08:57.399Z,14.65
2019-05-20T00:09:58.768Z,14.55
2019-05-20T00:11:00.123Z,14.66
2019-05-20T00:11:58.630Z,14.55
2019-05-20T00:12:57.068Z,14.51
2019-05-20T00:13:57.311Z,14.51
2019-05-20T00:14:57.064Z,14.51
2019-05-20T00:15:57.085Z,14.54
2019-05-20T00:16:57.319Z,14.48
2019-05-20T00:17:57.065Z,14.47
2019-05-20T00:18:57.062Z,14.51
2019-05-20T00:19:56.804Z,14.48
2019-05-20T00:21:00.080Z,14.43
2019-05-20T00:21:57.097Z,14.44
2019-05-20T00:22:57.056Z,14.44
2019-05-20T00:23:57.070Z,14.41
2019-05-20T00:24:57.054Z,14.36
2019-05-20T00:25:57.287Z,14.33
2019-05-20T00:26:57.056Z,14.37
2019-05-20T00:27:57.041Z,14.22
2019-05-20T00:28:56.816Z,14.29
2019-05-20T00:29:57.278Z,14.26
2019-05-20T00:30:57.074Z,14.32
2019-05-20T00:32:00.306Z,14.23
2019-05-20T00:32:57.048Z,14.22
2019-05-20T00:33:57.271Z,14.2
2019-05-20T00:34:57.010Z,14.25
2019-05-20T00:35:57.269Z,14.22
2019-05-20T00:36:57.063Z,14.26
2019-05-20T00:37:57.265Z,14.22
2019-05-20T00:38:57.261Z,14.22
2019-05-20T00:39:57.260Z,14.17
2019-05-20T00:40:57.299Z,14.25
2019-05-20T00:41:57.811Z,14.18
2019-05-20T00:43:00.042Z,14.2
2019-05-20T00:43:57.012Z,14.2
2019-05-20T00:44:57.238Z,14.17
2019-05-20T00:45:57.006Z,14.12
2019-05-20T00:46:56.990Z,14.18
2019-05-20T00:47:56.755Z,14.15
2019-05-20T00:48:57.010Z,14.12
2019-05-20T00:49:56.976Z,14.11
2019-05-20T00:50:56.982Z,14.1
2019-05-20T00:51:57.230Z,14.11
2019-05-20T00:53:00.018Z,14.05
2019-05-20T00:53:57.222Z,14.05
2019-05-20T00:54:56.990Z,14.03
2019-05-20T00:55:57.209Z,13.99
2019-05-20T00:56:56.962Z,13.96
2019-05-20T00:57:57.208Z,13.92
2019-05-20T00:58:57.204Z,13.85
2019-05-20T00:59:56.970Z,13.89
2019-05-20T01:00:57.225Z,13.83
2019-05-20T01:01:57.019Z,13.86
2019-05-20T01:03:01.457Z,13.87
2019-05-20T01:03:59.977Z,13.92
2019-05-20T01:04:57.205Z,13.95
2019-05-20T01:05:57.201Z,13.95
2019-05-20T01:06:57.256Z,13.97
2019-05-20T01:07:56.714Z,13.97
2019-05-20T01:08:56.704Z,13.95
2019-05-20T01:09:57.177Z,14
2019-05-20T01:10:57.181Z,14.03
2019-05-20T01:11:56.938Z,13.96
2019-05-20T01:12:57.223Z,14.07
2019-05-20T01:13:57.172Z,14.07
2019-05-20T01:14:58.358Z,13.99
2019-05-20T01:15:56.918Z,14.05
2019-05-20T01:16:57.172Z,14.08
2019-05-20T01:17:56.920Z,14.12
2019-05-20T01:18:56.922Z,14.08
2019-05-20T01:19:57.160Z,14.08
2019-05-20T01:20:57.199Z,14.15
2019-05-20T01:21:57.139Z,14.18
2019-05-20T01:22:56.642Z,14.18
2019-05-20T01:23:56.895Z,14.15
2019-05-20T01:24:59.681Z,14.1
2019-05-20T01:26:03.173Z,14.12
2019-05-20T01:26:57.222Z,14.07
2019-05-20T01:27:56.895Z,14.08
2019-05-20T01:28:56.886Z,14.1
2019-05-20T01:29:56.665Z,14.17
2019-05-20T01:30:56.880Z,14.1
2019-05-20T01:31:57.114Z,14.1
2019-05-20T01:33:10.920Z,14.14
2019-05-20T01:33:56.651Z,14.22
2019-05-20T01:34:56.863Z,14.18
2019-05-20T01:36:02.883Z,14.23
2019-05-20T01:36:56.871Z,14.18
2019-05-20T01:37:57.099Z,14.2
2019-05-20T01:38:56.869Z,14.2
2019-05-20T01:39:56.846Z,14.18
2019-05-20T01:40:56.606Z,14.2
2019-05-20T01:41:56.871Z,14.22
2019-05-20T01:42:56.844Z,14.12
2019-05-20T01:43:56.841Z,14.17
2019-05-20T01:44:57.161Z,14.22
2019-05-20T01:45:56.829Z,14.26
2019-05-20T01:47:02.688Z,14.3
2019-05-20T01:47:56.825Z,14.35
2019-05-20T01:48:57.093Z,14.3
2019-05-20T01:49:57.069Z,14.37
2019-05-20T01:50:57.058Z,14.33
2019-05-20T01:51:56.845Z,14.36
2019-05-20T01:52:57.069Z,14.35
2019-05-20T01:53:57.095Z,14.37
2019-05-20T01:54:57.086Z,14.36
2019-05-20T01:55:57.070Z,14.35
2019-05-20T01:56:58.461Z,14.37
2019-05-20T01:57:59.581Z,14.32
2019-05-20T01:58:56.798Z,14.37
2019-05-20T01:59:57.037Z,14.32
2019-05-20T02:00:56.796Z,14.35
2019-05-20T02:01:57.051Z,14.23
2019-05-20T02:02:56.794Z,14.07
2019-05-20T02:03:56.808Z,14.08
2019-05-20T02:04:57.037Z,14.1
2019-05-20T02:05:57.029Z,14.05
2019-05-20T02:06:57.026Z,14.12
2019-05-20T02:08:00.827Z,14.04
2019-05-20T02:08:57.027Z,14
2019-05-20T02:09:57.035Z,13.97
2019-05-20T02:10:59.081Z,14
2019-05-20T02:11:57.016Z,14
2019-05-20T02:12:57.004Z,13.99
2019-05-20T02:13:56.776Z,13.95
2019-05-20T02:14:56.765Z,13.9
2019-05-20T02:15:56.501Z,13.95
2019-05-20T02:16:56.776Z,13.97
2019-05-20T02:17:56.993Z,14.03
2019-05-20T02:18:59.542Z,13.99
2019-05-20T02:19:56.793Z,14.07
2019-05-20T02:20:57.034Z,14.03
2019-05-20T02:21:57.049Z,14.07
2019-05-20T02:22:56.731Z,14.03
2019-05-20T02:23:56.744Z,14.11
2019-05-20T02:24:56.973Z,14.14
2019-05-20T02:25:56.727Z,14.12
2019-05-20T02:26:56.731Z,14.07
2019-05-20T02:27:56.733Z,14.22
2019-05-20T02:28:57.181Z,14.15
2019-05-20T02:30:00.015Z,14.18
2019-05-20T02:31:07.841Z,14.22
2019-05-20T02:31:56.984Z,14.17
2019-05-20T02:32:56.710Z,14.2
2019-05-20T02:33:57.965Z,14.17
2019-05-20T02:34:56.984Z,14.22
2019-05-20T02:35:56.716Z,14.17
2019-05-20T02:36:56.947Z,14.17
2019-05-20T02:37:56.955Z,14.17
2019-05-20T02:38:56.702Z,14.14
2019-05-20T02:39:59.984Z,14.15
2019-05-20T02:40:56.698Z,14.2
2019-05-20T02:41:56.685Z,14.22
2019-05-20T02:42:56.737Z,14.18
2019-05-20T02:43:56.942Z,14.12
2019-05-20T02:44:56.706Z,14.15
2019-05-20T02:45:56.683Z,14.22
2019-05-20T02:46:56.924Z,14.2
2019-05-20T02:47:56.927Z,14.26
2019-05-20T02:48:56.924Z,14.17
2019-05-20T02:49:56.923Z,14.25
2019-05-20T02:50:58.099Z,14.17
2019-05-20T02:51:56.919Z,14.17
2019-05-20T02:52:56.689Z,14.2
2019-05-20T02:53:56.682Z,14.2
2019-05-20T02:54:56.908Z,14.26
2019-05-20T02:55:56.909Z,14.18
2019-05-20T02:56:56.891Z,14.2
2019-05-20T02:57:57.069Z,14.18
2019-05-20T02:58:56.901Z,14.2
2019-05-20T02:59:56.661Z,14.2
2019-05-20T03:00:56.408Z,14.12
2019-05-20T03:02:02.911Z,14.11
2019-05-20T03:02:56.652Z,14.1
2019-05-20T03:04:15.788Z,14.07
2019-05-20T03:04:56.889Z,14.07
2019-05-20T03:05:57.041Z,14.15
2019-05-20T03:06:56.633Z,14.14
2019-05-20T03:07:56.640Z,14.08
2019-05-20T03:08:56.865Z,14.14
2019-05-20T03:09:56.876Z,14.05
2019-05-20T03:10:56.647Z,14.1
2019-05-20T03:11:58.286Z,13.95
2019-05-20T03:13:01.680Z,13.93
2019-05-20T03:13:56.640Z,14.04
2019-05-20T03:14:56.890Z,14.05
2019-05-20T03:15:56.382Z,14.08
2019-05-20T03:16:56.847Z,14.05
2019-05-20T03:17:56.603Z,13.95
2019-05-20T03:18:56.892Z,14.03
2019-05-20T03:19:56.588Z,14.08
2019-05-20T03:20:56.660Z,14
2019-05-20T03:21:56.845Z,13.97
2019-05-20T03:23:03.185Z,13.97
2019-05-20T03:23:56.854Z,13.92
2019-05-20T03:24:56.354Z,13.95
2019-05-20T03:25:56.875Z,13.95
2019-05-20T03:26:56.824Z,13.92
2019-05-20T03:27:56.826Z,13.99
2019-05-20T03:29:01.687Z,14.04
2019-05-20T03:29:56.825Z,14.07
2019-05-20T03:30:56.582Z,14.03
2019-05-20T03:31:56.920Z,13.93
2019-05-20T03:32:56.817Z,14.03
2019-05-20T03:33:59.645Z,13.97
2019-05-20T03:35:05.524Z,13.95
2019-05-20T03:35:56.367Z,13.99
2019-05-20T03:36:56.861Z,13.9
2019-05-20T03:37:56.789Z,14.03
2019-05-20T03:38:56.543Z,14.07
2019-05-20T03:39:56.804Z,14
2019-05-20T03:40:56.571Z,13.93
2019-05-20T03:41:56.802Z,13.96
2019-05-20T03:42:56.528Z,14.05
2019-05-20T03:43:57.157Z,14.07
2019-05-20T03:44:59.554Z,14.03
2019-05-20T03:45:56.772Z,14.1
2019-05-20T03:46:56.780Z,14
2019-05-20T03:47:56.532Z,14.05
2019-05-20T03:48:56.762Z,14.05
2019-05-20T03:49:56.765Z,14.04
2019-05-20T03:50:56.250Z,14.12
2019-05-20T03:51:57.560Z,14
2019-05-20T03:52:56.855Z,14.03
2019-05-20T03:53:56.509Z,14.04
2019-05-20T03:54:59.145Z,13.97
2019-05-20T03:55:56.764Z,13.93
2019-05-20T03:56:56.593Z,13.95
2019-05-20T03:57:56.595Z,13.97
2019-05-20T03:58:56.731Z,14.05
2019-05-20T03:59:57.011Z,14.05
2019-05-20T04:00:56.748Z,14.08
2019-05-20T04:01:56.813Z,14.08
2019-05-20T04:02:56.487Z,13.97
2019-05-20T04:03:56.726Z,14.05
2019-05-20T04:05:07.567Z,14.1
2019-05-20T04:05:59.788Z,14.08
2019-05-20T04:06:56.738Z,14.07
2019-05-20T04:07:56.746Z,14.15
2019-05-20T04:08:56.707Z,14.14
2019-05-20T04:09:56.706Z,14.17
2019-05-20T04:10:56.465Z,14.11
2019-05-20T04:11:56.534Z,14.11
2019-05-20T04:12:56.452Z,14.15
2019-05-20T04:13:56.699Z,14.17
2019-05-20T04:14:56.701Z,14.2
2019-05-20T04:15:56.207Z,14.22
2019-05-20T04:16:58.282Z,14.2
2019-05-20T04:17:56.725Z,14.18
2019-05-20T04:18:58.944Z,14.22
2019-05-20T04:19:56.682Z,14.22
2019-05-20T04:20:56.674Z,14.3
2019-05-20T04:21:56.428Z,14.28
2019-05-20T04:22:56.739Z,14.3
2019-05-20T04:24:00.660Z,14.23
2019-05-20T04:24:56.427Z,14.25
2019-05-20T04:25:56.767Z,14.23
2019-05-20T04:26:59.447Z,14.18
2019-05-20T04:27:59.722Z,14.18
2019-05-20T04:28:56.162Z,14.2
2019-05-20T04:29:56.428Z,14.22
2019-05-20T04:30:56.162Z,14.22
2019-05-20T04:31:56.641Z,14.32
2019-05-20T04:32:56.185Z,14.35
2019-05-20T04:33:56.397Z,14.4
2019-05-20T04:34:56.637Z,14.37
2019-05-20T04:35:56.680Z,14.33
2019-05-20T04:36:56.640Z,14.36
2019-05-20T04:38:02.648Z,14.35
2019-05-20T04:38:56.405Z,14.35
2019-05-20T04:39:56.646Z,14.29
2019-05-20T04:40:56.664Z,14.23
2019-05-20T04:41:56.396Z,14.26
2019-05-20T04:42:56.670Z,14.28
2019-05-20T04:43:56.385Z,14.2
2019-05-20T04:44:56.619Z,14.28
2019-05-20T04:45:56.649Z,14.36
2019-05-20T04:47:00.239Z,14.43
2019-05-20T04:47:56.625Z,14.47
2019-05-20T04:48:59.683Z,14.47
2019-05-20T04:49:56.367Z,14.59
2019-05-20T04:50:56.384Z,14.53
2019-05-20T04:51:56.622Z,14.65
2019-05-20T04:52:56.590Z,14.6
2019-05-20T04:53:56.344Z,14.65
2019-05-20T04:54:56.619Z,14.66
2019-05-20T04:55:56.621Z,14.6
2019-05-20T04:56:56.592Z,14.62
2019-05-20T04:57:56.583Z,14.66
2019-05-20T04:58:58.000Z,14.65
2019-05-20T04:59:59.656Z,14.66
2019-05-20T05:00:57.026Z,14.65
2019-05-20T05:01:56.576Z,14.7
2019-05-20T05:02:56.579Z,14.85
2019-05-20T05:03:56.325Z,14.88
2019-05-20T05:04:56.574Z,14.88
2019-05-20T05:05:56.677Z,14.85
2019-05-20T05:06:56.561Z,14.89
2019-05-20T05:07:56.583Z,14.96
2019-05-20T05:08:56.551Z,15
2019-05-20T05:09:59.338Z,15.04
2019-05-20T05:10:56.557Z,15.04
2019-05-20T05:11:56.304Z,15.09
2019-05-20T05:12:56.294Z,15.03
2019-05-20T05:13:56.306Z,15.02
2019-05-20T05:14:56.542Z,15.09
2019-05-20T05:15:56.345Z,15.04
2019-05-20T05:16:56.300Z,15.04
2019-05-20T05:17:56.540Z,15.14
2019-05-20T05:18:56.546Z,15.22
2019-05-20T05:19:56.540Z,15.24
2019-05-20T05:20:59.323Z,15.21
2019-05-20T05:21:56.540Z,15.27
2019-05-20T05:22:56.528Z,15.27
2019-05-20T05:24:04.236Z,15.39
2019-05-20T05:24:56.284Z,15.37
2019-05-20T05:25:56.279Z,15.49
2019-05-20T05:26:56.536Z,15.42
2019-05-20T05:27:56.277Z,15.43
2019-05-20T05:28:56.277Z,15.58
2019-05-20T05:29:56.527Z,15.54
2019-05-20T05:30:57.987Z,15.67
2019-05-20T05:31:59.304Z,15.68
2019-05-20T05:32:56.580Z,15.61
2019-05-20T05:33:59.197Z,15.75
2019-05-20T05:34:56.454Z,15.67
2019-05-20T05:35:58.242Z,15.77
2019-05-20T05:36:56.269Z,15.76
2019-05-20T05:37:57.286Z,15.8
2019-05-20T05:38:56.262Z,15.86
2019-05-20T05:39:56.514Z,15.84
2019-05-20T05:40:56.511Z,16.01
2019-05-20T05:41:59.544Z,15.92
2019-05-20T05:42:56.508Z,15.91
2019-05-20T05:43:56.256Z,15.83
2019-05-20T05:44:56.502Z,15.8
2019-05-20T05:45:57.142Z,15.82
2019-05-20T05:46:56.511Z,15.83
2019-05-20T05:47:56.250Z,15.84
2019-05-20T05:48:56.515Z,15.98
2019-05-20T05:49:56.247Z,15.97
2019-05-20T05:50:56.256Z,16.01
2019-05-20T05:51:56.245Z,16.1
2019-05-20T05:52:59.534Z,16.12
2019-05-20T05:53:56.497Z,16.23
2019-05-20T05:54:56.485Z,16.24
2019-05-20T05:55:56.240Z,16.23
2019-05-20T05:56:56.486Z,16.31
2019-05-20T05:57:56.496Z,16.42
2019-05-20T05:58:56.514Z,16.49
2019-05-20T05:59:56.487Z,16.6
2019-05-20T06:00:56.503Z,16.68
2019-05-20T06:01:56.518Z,16.68
2019-05-20T06:02:56.500Z,16.74
2019-05-20T06:04:02.500Z,16.58
2019-05-20T06:04:56.488Z,16.61
2019-05-20T06:06:13.922Z,16.6
2019-05-20T06:06:56.606Z,16.54
2019-05-20T06:07:56.301Z,16.47
2019-05-20T06:08:56.485Z,16.42
2019-05-20T06:09:56.243Z,16.46
2019-05-20T06:10:56.256Z,16.42
2019-05-20T06:11:56.247Z,16.36
2019-05-20T06:12:56.509Z,16.35
2019-05-20T06:13:57.921Z,16.26
2019-05-20T06:14:59.570Z,16.28
2019-05-20T06:15:59.431Z,16.2
2019-05-20T06:16:56.522Z,16.28
2019-05-20T06:17:55.981Z,16.24
2019-05-20T06:18:56.235Z,16.32
2019-05-20T06:19:56.231Z,16.29
2019-05-20T06:20:56.254Z,16.32
2019-05-20T06:21:56.272Z,16.33
2019-05-20T06:22:56.489Z,16.33
2019-05-20T06:23:56.550Z,16.38
2019-05-20T06:25:02.800Z,16.39
2019-05-20T06:25:56.220Z,16.51
2019-05-20T06:26:56.217Z,16.53
2019-05-20T06:27:56.472Z,16.54
2019-05-20T06:28:56.468Z,16.46
2019-05-20T06:29:56.222Z,16.6
2019-05-20T06:30:56.482Z,16.64
2019-05-20T06:31:58.375Z,16.79
2019-05-20T06:32:56.470Z,16.78
2019-05-20T06:33:56.223Z,16.84
2019-05-20T06:34:56.469Z,16.84
2019-05-20T06:35:59.513Z,16.89
2019-05-20T06:36:56.214Z,16.89
2019-05-20T06:37:56.312Z,16.78
2019-05-20T06:38:56.486Z,16.83
2019-05-20T06:39:56.211Z,16.9
2019-05-20T06:40:56.282Z,16.83
2019-05-20T06:41:56.224Z,16.79
2019-05-20T06:42:55.997Z,16.78
2019-05-20T06:43:56.233Z,16.84
2019-05-20T06:44:59.725Z,16.81
2019-05-20T06:45:57.099Z,16.78
2019-05-20T06:46:59.488Z,16.89
2019-05-20T06:47:56.209Z,16.84
2019-05-20T06:48:56.480Z,16.93
2019-05-20T06:49:56.212Z,17.04
2019-05-20T06:50:56.211Z,16.99
2019-05-20T06:51:56.457Z,17.09
2019-05-20T06:52:56.209Z,17.08
2019-05-20T06:53:56.212Z,17.15
2019-05-20T06:54:56.453Z,17.16
2019-05-20T06:55:56.465Z,17.23
2019-05-20T06:56:59.584Z,17.26
2019-05-20T06:57:56.459Z,17.31
2019-05-20T06:58:56.456Z,17.39
2019-05-20T06:59:56.224Z,17.31
2019-05-20T07:00:55.988Z,17.41
2019-05-20T07:01:56.228Z,17.14
2019-05-20T07:02:56.548Z,17.04
2019-05-20T07:03:56.223Z,16.94
2019-05-20T07:04:56.450Z,16.96
2019-05-20T07:05:56.231Z,16.86
2019-05-20T07:06:56.225Z,16.89
2019-05-20T07:08:01.261Z,16.74
2019-05-20T07:08:56.507Z,16.75
2019-05-20T07:09:56.451Z,16.72
2019-05-20T07:10:56.213Z,16.58
2019-05-20T07:11:57.936Z,16.61
2019-05-20T07:12:56.202Z,16.66
2019-05-20T07:13:56.454Z,16.74
2019-05-20T07:14:56.444Z,16.72
2019-05-20T07:15:56.474Z,16.84
2019-05-20T07:16:56.281Z,16.81
2019-05-20T07:17:56.263Z,16.84
2019-05-20T07:18:59.238Z,16.81
2019-05-20T07:19:56.446Z,16.96
2019-05-20T07:20:56.454Z,17.04
2019-05-20T07:21:56.468Z,17.02
2019-05-20T07:23:00.896Z,17.15
2019-05-20T07:23:57.097Z,17.16
2019-05-20T07:24:56.213Z,17.15
2019-05-20T07:25:56.197Z,17.09
2019-05-20T07:26:56.438Z,17.04
2019-05-20T07:27:55.957Z,16.99
2019-05-20T07:28:59.014Z,16.94
2019-05-20T07:29:59.482Z,16.91
2019-05-20T07:30:55.983Z,16.87
2019-05-20T07:31:56.199Z,16.87
2019-05-20T07:32:55.950Z,16.81
2019-05-20T07:33:55.962Z,16.94
2019-05-20T07:34:56.434Z,16.76
2019-05-20T07:35:56.216Z,16.72
2019-05-20T07:37:07.535Z,16.66
2019-05-20T07:37:56.448Z,16.56
2019-05-20T07:38:56.186Z,16.56
2019-05-20T07:40:02.758Z,16.61
2019-05-20T07:40:56.450Z,16.54
2019-05-20T07:41:56.217Z,16.46
2019-05-20T07:42:56.203Z,16.41
2019-05-20T07:43:55.965Z,16.43
2019-05-20T07:44:56.461Z,16.47
2019-05-20T07:45:56.438Z,16.46
2019-05-20T07:46:56.459Z,16.5
2019-05-20T07:47:56.253Z,16.42
2019-05-20T07:48:56.030Z,16.33
2019-05-20T07:49:55.952Z,16.26
2019-05-20T07:51:02.465Z,16.17
2019-05-20T07:51:56.272Z,16.17
2019-05-20T07:52:59.745Z,16.17
2019-05-20T07:53:56.562Z,16.1
2019-05-20T07:54:56.189Z,16.16
2019-05-20T07:55:56.451Z,16.08
2019-05-20T07:56:56.440Z,16.04
2019-05-20T07:57:56.444Z,16.09
2019-05-20T07:58:56.432Z,16.09
2019-05-20T07:59:56.422Z,15.91
2019-05-20T08:00:57.845Z,15.88
2019-05-20T08:01:59.501Z,15.8
2019-05-20T08:02:58.086Z,15.8
2019-05-20T08:03:56.418Z,15.72
2019-05-20T08:04:56.258Z,15.7
2019-05-20T08:05:56.160Z,15.77
2019-05-20T08:06:56.010Z,15.75
2019-05-20T08:07:57.132Z,15.76
2019-05-20T08:08:56.428Z,15.65
2019-05-20T08:09:56.408Z,15.61
2019-05-20T08:10:56.165Z,15.64
2019-05-20T08:11:59.213Z,15.75
2019-05-20T08:12:56.431Z,15.77
2019-05-20T08:13:56.197Z,15.83
2019-05-20T08:14:56.174Z,15.86
2019-05-20T08:15:56.453Z,15.88
2019-05-20T08:16:56.459Z,15.94
2019-05-20T08:17:57.043Z,15.97
2019-05-20T08:18:56.421Z,15.91
2019-05-20T08:19:55.921Z,16.04
2019-05-20T08:20:56.171Z,16.08
2019-05-20T08:21:56.155Z,16.09
2019-05-20T08:22:59.192Z,16.15
2019-05-20T08:23:55.903Z,16.13
2019-05-20T08:24:56.443Z,16.17
2019-05-20T08:25:56.159Z,16.16
2019-05-20T08:26:56.396Z,16.17
2019-05-20T08:27:56.374Z,16.31
2019-05-20T08:28:56.579Z,16.29
2019-05-20T08:29:56.379Z,16.26
2019-05-20T08:30:56.479Z,16.21
2019-05-20T08:31:56.391Z,16.33
2019-05-20T08:32:56.585Z,16.28
2019-05-20T08:33:59.206Z,16.35
2019-05-20T08:34:56.392Z,16.39
2019-05-20T08:35:56.140Z,16.5
2019-05-20T08:36:56.374Z,16.57
2019-05-20T08:37:56.373Z,16.49
2019-05-20T08:38:56.144Z,16.51
2019-05-20T08:39:56.370Z,16.49
2019-05-20T08:40:56.437Z,16.54
2019-05-20T08:41:56.371Z,16.54
2019-05-20T08:42:56.372Z,16.54
2019-05-20T08:43:59.184Z,16.65
2019-05-20T08:44:56.172Z,16.61
2019-05-20T08:45:56.127Z,16.58
2019-05-20T08:46:56.383Z,16.51
2019-05-20T08:47:56.127Z,16.49
2019-05-20T08:48:56.359Z,16.41
2019-05-20T08:49:57.378Z,16.32
2019-05-20T08:50:56.390Z,16.33
2019-05-20T08:51:56.524Z,16.33
2019-05-20T08:52:56.389Z,16.31
2019-05-20T08:53:56.144Z,16.33
2019-05-20T08:54:59.167Z,16.31
2019-05-20T08:55:56.437Z,16.41
2019-05-20T08:56:56.376Z,16.41
2019-05-20T08:57:56.399Z,16.49
2019-05-20T08:58:56.344Z,16.61
2019-05-20T08:59:56.356Z,16.61
2019-05-20T09:00:56.168Z,16.81
2019-05-20T09:01:56.356Z,16.76
2019-05-20T09:02:56.396Z,16.83
2019-05-20T09:03:59.607Z,16.96
2019-05-20T09:04:55.858Z,17.12
2019-05-20T09:06:02.687Z,17.33
2019-05-20T09:06:56.106Z,17.36
2019-05-20T09:08:10.906Z,17.51
2019-05-20T09:08:56.106Z,17.54
2019-05-20T09:09:56.359Z,17.48
2019-05-20T09:10:56.105Z,17.38
2019-05-20T09:11:56.357Z,17.39
2019-05-20T09:12:56.368Z,17.42
2019-05-20T09:13:56.354Z,17.38
2019-05-20T09:14:55.858Z,17.31
2019-05-20T09:15:57.538Z,17.33
2019-05-20T09:16:59.150Z,17.44
2019-05-20T09:17:56.347Z,17.39
2019-05-20T09:18:56.407Z,17.57
2019-05-20T09:19:56.342Z,17.56
2019-05-20T09:20:56.112Z,17.6
2019-05-20T09:21:56.449Z,17.63
2019-05-20T09:22:56.101Z,17.56
2019-05-20T09:23:56.343Z,17.54
2019-05-20T09:24:56.737Z,17.39
2019-05-20T09:25:56.087Z,17.36
2019-05-20T09:26:59.165Z,17.34
2019-05-20T09:27:56.367Z,17.48
2019-05-20T09:28:56.106Z,17.33
2019-05-20T09:29:55.922Z,17.48
2019-05-20T09:30:56.137Z,17.59
2019-05-20T09:31:56.360Z,17.56
2019-05-20T09:32:56.371Z,17.59
2019-05-20T09:33:58.042Z,17.51
2019-05-20T09:34:56.102Z,17.48
2019-05-20T09:35:56.372Z,17.52
2019-05-20T09:36:56.432Z,17.46
2019-05-20T09:37:59.147Z,17.49
2019-05-20T09:38:56.359Z,17.54
2019-05-20T09:39:56.465Z,17.6
2019-05-20T09:40:56.208Z,17.65
2019-05-20T09:41:56.201Z,17.72
2019-05-20T09:42:56.119Z,17.63
2019-05-20T09:43:56.114Z,17.71
2019-05-20T09:44:56.175Z,17.7
2019-05-20T09:46:11.030Z,17.64
2019-05-20T09:46:56.390Z,17.65
2019-05-20T09:47:56.721Z,17.59
2019-05-20T09:48:59.511Z,17.63
2019-05-20T09:49:56.367Z,17.63
2019-05-20T09:50:55.865Z,17.39
2019-05-20T09:51:56.360Z,17.31
2019-05-20T09:52:56.123Z,17.36
2019-05-20T09:53:56.110Z,17.15
2019-05-20T09:54:56.375Z,17.19
2019-05-20T09:55:56.369Z,17.14
2019-05-20T09:56:56.378Z,17.2
2019-05-20T09:57:56.192Z,17.05
2019-05-20T09:58:59.382Z,17.05
2019-05-20T09:59:56.149Z,17.05
2019-05-20T10:00:56.356Z,17.02
2019-05-20T10:01:56.153Z,17.04
2019-05-20T10:02:56.354Z,17.06
2019-05-20T10:03:56.360Z,17.08
2019-05-20T10:04:56.807Z,17.08
2019-05-20T10:05:55.862Z,17.15
2019-05-20T10:06:56.407Z,17.12
2019-05-20T10:07:56.365Z,17.16
2019-05-20T10:08:56.369Z,17.14
2019-05-20T10:09:58.260Z,17.2
2019-05-20T10:10:59.544Z,17.36
2019-05-20T10:11:56.109Z,17.34
2019-05-20T10:12:56.132Z,17.36
2019-05-20T10:13:56.097Z,17.27
2019-05-20T10:14:57.431Z,17.45
2019-05-20T10:15:56.439Z,17.39
2019-05-20T10:16:55.867Z,17.39
2019-05-20T10:17:56.386Z,17.39
2019-05-20T10:19:00.299Z,17.38
2019-05-20T10:19:56.348Z,17.42
2019-05-20T10:21:02.649Z,17.38
2019-05-20T10:21:56.135Z,17.36
2019-05-20T10:22:56.115Z,17.3
2019-05-20T10:23:56.571Z,17.2
2019-05-20T10:24:55.851Z,17.08
2019-05-20T10:25:55.869Z,17.04
2019-05-20T10:26:55.920Z,17.01
2019-05-20T10:27:59.857Z,16.97
2019-05-20T10:28:56.350Z,16.96
2019-05-20T10:29:56.119Z,16.96
2019-05-20T10:30:57.542Z,16.96
2019-05-20T10:31:59.407Z,16.9
2019-05-20T10:32:56.166Z,16.83
2019-05-20T10:33:56.397Z,16.89
2019-05-20T10:34:56.337Z,16.87
2019-05-20T10:35:56.350Z,16.84
2019-05-20T10:36:56.375Z,16.72
2019-05-20T10:37:56.353Z,16.76
2019-05-20T10:39:07.445Z,16.68
2019-05-20T10:39:56.391Z,16.65
2019-05-20T10:40:56.442Z,16.69
2019-05-20T10:42:02.113Z,16.68
2019-05-20T10:42:56.343Z,16.58
2019-05-20T10:43:56.093Z,16.56
2019-05-20T10:44:56.102Z,16.65
2019-05-20T10:45:56.351Z,16.6
2019-05-20T10:46:56.447Z,16.51
2019-05-20T10:47:56.434Z,16.51
2019-05-20T10:48:56.099Z,16.42
2019-05-20T10:49:56.453Z,16.47
2019-05-20T10:50:55.840Z,16.38
2019-05-20T10:51:56.087Z,16.46
2019-05-20T10:52:59.134Z,16.47
2019-05-20T10:53:55.842Z,16.42
2019-05-20T10:54:56.105Z,16.35
2019-05-20T10:55:56.679Z,16.31
2019-05-20T10:56:59.455Z,16.32
2019-05-20T10:57:55.872Z,16.32
2019-05-20T10:58:56.365Z,16.23
2019-05-20T10:59:56.330Z,16.26
2019-05-20T11:01:07.800Z,16.28
2019-05-20T11:01:56.110Z,16.26
2019-05-20T11:02:56.970Z,16.31
2019-05-20T11:03:59.361Z,16.35
2019-05-20T11:04:56.390Z,16.42
2019-05-20T11:05:56.172Z,16.41
2019-05-20T11:06:56.345Z,16.54
2019-05-20T11:07:56.852Z,16.58
2019-05-20T11:08:56.081Z,16.57
2019-05-20T11:09:56.331Z,16.57
2019-05-20T11:10:56.435Z,16.5
2019-05-20T11:11:56.058Z,16.58
2019-05-20T11:12:56.312Z,16.71
2019-05-20T11:13:59.344Z,16.65
2019-05-20T11:14:56.343Z,16.58
2019-05-20T11:15:56.384Z,16.64
2019-05-20T11:16:56.313Z,16.56
2019-05-20T11:17:56.311Z,16.66
2019-05-20T11:18:55.813Z,16.61
2019-05-20T11:19:56.320Z,16.6
2019-05-20T11:20:56.126Z,16.64
2019-05-20T11:21:56.340Z,16.58
2019-05-20T11:22:56.342Z,16.54
2019-05-20T11:23:56.110Z,16.53
2019-05-20T11:24:59.169Z,16.51
2019-05-20T11:25:55.814Z,16.42
2019-05-20T11:26:56.059Z,16.39
2019-05-20T11:27:56.060Z,16.38
2019-05-20T11:28:56.419Z,16.46
2019-05-20T11:29:56.314Z,16.43
2019-05-20T11:30:56.292Z,16.41
2019-05-20T11:31:55.813Z,16.33
2019-05-20T11:32:56.386Z,16.23
2019-05-20T11:34:00.064Z,16.17
2019-05-20T11:34:56.317Z,16.23
2019-05-20T11:35:59.117Z,16.24
2019-05-20T11:36:56.598Z,16.28
2019-05-20T11:37:56.319Z,16.24
2019-05-20T11:38:56.313Z,16.28
2019-05-20T11:39:56.285Z,16.17
2019-05-20T11:40:56.054Z,16.31
2019-05-20T11:41:58.813Z,16.33
2019-05-20T11:42:56.353Z,16.32
2019-05-20T11:43:56.053Z,16.42
2019-05-20T11:44:56.062Z,16.39
2019-05-20T11:45:58.429Z,16.46
2019-05-20T11:47:02.560Z,16.49
2019-05-20T11:47:56.283Z,16.43
2019-05-20T11:48:56.282Z,16.49
2019-05-20T11:49:56.035Z,16.39
2019-05-20T11:50:56.431Z,16.53
2019-05-20T11:51:56.272Z,16.53
2019-05-20T11:52:56.013Z,16.51
2019-05-20T11:53:56.010Z,16.49
2019-05-20T11:54:56.033Z,16.46
2019-05-20T11:55:56.072Z,16.61
2019-05-20T11:57:02.677Z,16.56
2019-05-20T11:57:56.019Z,16.66
2019-05-20T11:58:56.023Z,16.79
2019-05-20T11:59:56.291Z,16.74
2019-05-20T12:00:56.010Z,16.86
2019-05-20T12:01:56.270Z,16.87
2019-05-20T12:02:56.040Z,16.9
2019-05-20T12:03:56.283Z,16.87
2019-05-20T12:04:56.046Z,16.97
2019-05-20T12:05:56.344Z,16.99
2019-05-20T12:06:56.013Z,17.06
2019-05-20T12:07:59.288Z,17.16
2019-05-20T12:08:56.295Z,17.34
2019-05-20T12:09:56.359Z,17.39
2019-05-20T12:10:55.995Z,17.52
2019-05-20T12:11:56.008Z,17.63
2019-05-20T12:12:56.140Z,17.64
2019-05-20T12:13:56.441Z,17.76
2019-05-20T12:14:56.020Z,17.71
2019-05-20T12:15:56.252Z,17.76
2019-05-20T12:16:56.309Z,17.74
2019-05-20T12:17:57.672Z,17.76
2019-05-20T12:18:59.291Z,17.71
2019-05-20T12:19:56.261Z,17.64
2019-05-20T12:20:56.068Z,17.6
2019-05-20T12:21:56.325Z,17.68
2019-05-20T12:22:56.264Z,17.64
2019-05-20T12:23:56.024Z,17.64
2019-05-20T12:24:56.721Z,17.57
2019-05-20T12:25:56.315Z,17.59
2019-05-20T12:26:56.266Z,17.59
2019-05-20T12:27:56.005Z,17.64
2019-05-20T12:28:59.034Z,17.64
2019-05-20T12:29:56.272Z,17.63
2019-05-20T12:30:56.268Z,17.68
2019-05-20T12:31:56.268Z,17.67
2019-05-20T12:33:28.737Z,17.7
2019-05-20T12:33:56.245Z,17.65
2019-05-20T12:34:56.270Z,17.56
2019-05-20T12:35:56.327Z,17.54
2019-05-20T12:36:56.335Z,17.56
2019-05-20T12:37:56.269Z,17.57
2019-05-20T12:38:56.269Z,17.57
2019-05-20T12:40:11.291Z,17.46
2019-05-20T12:40:56.251Z,17.57
2019-05-20T12:41:56.020Z,17.67
2019-05-20T12:42:56.247Z,17.65
2019-05-20T12:44:15.812Z,17.68
2019-05-20T12:44:56.259Z,17.72
2019-05-20T12:45:56.288Z,17.74
2019-05-20T12:46:56.261Z,17.79
2019-05-20T12:47:56.009Z,17.9
2019-05-20T12:48:56.511Z,17.97
2019-05-20T12:49:56.203Z,18.13
2019-05-20T12:51:00.820Z,18.01
2019-05-20T12:51:56.044Z,17.79
2019-05-20T12:52:56.255Z,17.74
2019-05-20T12:53:56.264Z,17.71
2019-05-20T12:55:12.637Z,17.71